createdAt,value
2019-01-05T00:04:30.052Z,101581.80
2019-01-05T00:09:56.235Z,101578.27
2019-01-05T00:15:17.571Z,101574.36
2019-01-05T00:20:54.888Z,101584.14
2019-01-05T00:26:06.117Z,101582.37
2019-01-05T00:31:26.715Z,101562.02
2019-01-05T00:36:58.005Z,101545.54
2019-01-05T00:42:19.911Z,101543.80
2019-01-05T00:47:43.719Z,101535.52
2019-01-05T00:53:09.926Z,101533.73
2019-01-05T00:58:26.739Z,101514.30
2019-01-05T01:03:58.013Z,101493.61
2019-01-05T01:09:09.854Z,101489.22
2019-01-05T01:14:30.633Z,101481.84
2019-01-05T01:19:51.263Z,101477.08
2019-01-05T01:25:22.030Z,101465.82
2019-01-05T01:30:40.692Z,101460.55
2019-01-05T01:36:03.925Z,101448.44
2019-01-05T01:41:30.759Z,101438.06
2019-01-05T01:47:06.686Z,101426.77
2019-01-05T01:52:30.898Z,101421.12
2019-01-05T01:57:54.624Z,101423.19
2019-01-05T02:03:17.383Z,101418.38
2019-01-05T02:08:43.073Z,101409.27
2019-01-05T02:14:10.787Z,101399.28
2019-01-05T02:19:38.419Z,101384.55
2019-01-05T02:26:01.198Z,101368.13
2019-01-05T02:32:17.138Z,101364.62
2019-01-05T02:38:30.484Z,101354.23
2019-01-05T02:44:23.907Z,101351.09
2019-01-05T02:50:40.815Z,101342.00
2019-01-05T02:57:20.074Z,101323.42
2019-01-05T03:03:11.863Z,101300.89
2019-01-05T03:09:19.059Z,101298.58
2019-01-05T03:15:30.144Z,101299.74
2019-01-05T03:21:43.486Z,101294.40
2019-01-05T03:27:36.188Z,101296.05
2019-01-05T03:34:19.369Z,101285.53
2019-01-05T03:40:27.521Z,101277.25
2019-01-05T03:46:40.760Z,101271.50
2019-01-05T03:52:48.649Z,101275.73
2019-01-05T03:59:10.066Z,101269.98
2019-01-05T04:05:31.591Z,101268.20
2019-01-05T04:11:41.465Z,101260.70
2019-01-05T04:18:15.871Z,101263.48
2019-01-05T04:24:46.677Z,101251.34
2019-01-05T04:31:20.130Z,101247.33
2019-01-05T04:38:10.416Z,101253.25
2019-01-05T04:44:34.491Z,101242.23
2019-01-05T04:50:32.485Z,101250.30
2019-01-05T04:57:15.273Z,101251.45
2019-01-05T05:03:33.823Z,101250.87
2019-01-05T05:10:21.257Z,101244.27
2019-01-05T05:16:54.954Z,101245.51
2019-01-05T05:23:21.496Z,101246.61
2019-01-05T05:29:28.328Z,101239.25
2019-01-05T05:35:36.821Z,101236.21
2019-01-05T05:42:18.717Z,101236.92
2019-01-05T05:48:23.600Z,101240.35
2019-01-05T05:54:56.321Z,101239.38
2019-01-05T06:01:09.316Z,101228.62
2019-01-05T06:07:36.815Z,101231.95
2019-01-05T06:14:09.201Z,101230.66
2019-01-05T06:20:48.284Z,101235.30
2019-01-05T06:27:10.282Z,101242.56
2019-01-05T06:33:30.346Z,101257.55
2019-01-05T06:40:14.104Z,101255.76
2019-01-05T06:47:25.336Z,101263.83
2019-01-05T06:53:54.286Z,101273.28
2019-01-05T07:00:20.894Z,101309.87
2019-01-05T07:06:28.805Z,101321.88
2019-01-05T07:12:39.717Z,101333.43
2019-01-05T07:19:02.233Z,101326.03
2019-01-05T07:25:19.651Z,101328.17
2019-01-05T07:31:24.856Z,101340.75
2019-01-05T07:37:43.408Z,101352.76
2019-01-05T07:44:20.022Z,101365.60
2019-01-05T07:50:49.524Z,101387.20
2019-01-05T07:57:20.722Z,101386.36
2019-01-05T08:03:57.976Z,101412.65
2019-01-05T08:10:16.774Z,101419.88
2019-01-05T08:17:10.369Z,101421.13
2019-01-05T08:23:16.009Z,101412.02
2019-01-05T08:30:03.274Z,101421.34
2019-01-05T08:36:44.864Z,101418.88
2019-01-05T08:43:07.288Z,101422.45
2019-01-05T08:49:33.354Z,101430.03
2019-01-05T08:56:22.689Z,101438.91
2019-01-05T09:02:30.376Z,101449.62
2019-01-05T09:08:37.319Z,101460.37
2019-01-05T09:14:41.636Z,101463.30
2019-01-05T09:21:09.950Z,101456.40
2019-01-05T09:27:25.905Z,101461.77
2019-01-05T09:33:31.827Z,101467.27
2019-01-05T09:39:42.159Z,101461.53
2019-01-05T09:45:55.840Z,101454.59
2019-01-05T09:52:19.399Z,101471.86
2019-01-05T09:58:34.667Z,101469.27
2019-01-05T10:04:53.226Z,101481.67
2019-01-05T10:11:16.912Z,101472.41
2019-01-05T10:17:32.319Z,101452.81
2019-01-05T10:23:39.557Z,101458.62
2019-01-05T10:30:24.788Z,101471.88
2019-01-05T10:36:26.771Z,101479.80
2019-01-05T10:42:46.211Z,101475.59
2019-01-05T10:49:28.664Z,101483.36
2019-01-05T10:55:31.430Z,101479.50
2019-01-05T11:01:43.237Z,101477.30
2019-01-05T11:07:51.105Z,101489.59
2019-01-05T11:14:34.646Z,101506.09
2019-01-05T11:21:06.787Z,101505.92
2019-01-05T11:27:52.720Z,101505.69
2019-01-05T11:34:25.129Z,101503.38
2019-01-05T11:40:22.765Z,101508.84
2019-01-05T11:46:49.403Z,101518.06
2019-01-05T11:53:13.776Z,101511.11
2019-01-05T11:59:49.301Z,101519.83
2019-01-05T12:06:25.772Z,101531.25
2019-01-05T12:12:21.638Z,101529.88
2019-01-05T12:18:59.087Z,101534.56
2019-01-05T12:25:28.358Z,101541.88
2019-01-05T12:32:00.758Z,101547.20
2019-01-05T12:38:01.406Z,101551.46
2019-01-05T12:44:04.076Z,101554.27
2019-01-05T12:50:42.444Z,101563.56
2019-01-05T12:56:58.689Z,101558.38
2019-01-05T13:03:16.133Z,101552.48
2019-01-05T13:09:27.534Z,101558.73
2019-01-05T13:15:56.460Z,101569.33
2019-01-05T13:21:50.581Z,101576.66
2019-01-05T13:28:06.511Z,101585.36
2019-01-05T13:34:49.879Z,101591.55
2019-01-05T13:41:18.752Z,101598.24
2019-01-05T13:47:39.489Z,101611.42
2019-01-05T13:53:22.197Z,101621.11
2019-01-05T13:58:47.966Z,101633.30
2019-01-05T14:04:08.236Z,101640.44
2019-01-05T14:09:35.812Z,101645.52
2019-01-05T14:15:06.593Z,101645.45
2019-01-05T14:20:23.755Z,101651.79
2019-01-05T14:25:51.608Z,101653.76
2019-01-05T14:31:12.346Z,101655.30
2019-01-05T14:36:32.670Z,101665.41
2019-01-05T14:41:53.078Z,101659.88
2019-01-05T14:47:14.545Z,101660.41
2019-01-05T14:52:34.929Z,101663.91
2019-01-05T14:57:55.305Z,101678.63
2019-01-05T15:03:25.235Z,101681.41
2019-01-05T15:08:41.946Z,101691.46
2019-01-05T15:14:02.017Z,101696.83
2019-01-05T15:19:43.895Z,101713.34
2019-01-05T15:25:05.546Z,101716.02
2019-01-05T15:30:30.935Z,101712.17
2019-01-05T15:36:07.424Z,101717.98
2019-01-05T15:41:23.407Z,101719.88
2019-01-05T15:46:47.637Z,101718.84
2019-01-05T15:52:14.478Z,101719.91
2019-01-05T15:57:33.348Z,101727.28
2019-01-05T16:02:51.860Z,101735.56
2019-01-05T16:08:12.220Z,101742.05
2019-01-05T16:13:38.118Z,101750.66
2019-01-05T16:18:59.905Z,101752.98
2019-01-05T16:24:20.482Z,101754.36
2019-01-05T16:29:42.444Z,101758.24
2019-01-05T16:35:03.236Z,101750.36
2019-01-05T16:40:24.132Z,101753.29
2019-01-05T16:45:45.926Z,101756.94
2019-01-05T16:51:04.790Z,101758.73
2019-01-05T16:56:25.311Z,101756.27
2019-01-05T17:01:45.772Z,101761.25
2019-01-05T17:07:07.760Z,101763.52
2019-01-05T17:12:29.149Z,101777.80
2019-01-05T17:17:40.272Z,101782.30
2019-01-05T17:23:14.791Z,101783.27
2019-01-05T17:28:35.674Z,101791.23
2019-01-05T17:34:03.746Z,101792.64
2019-01-05T17:39:20.071Z,101796.13
2019-01-05T17:44:35.784Z,101804.16
2019-01-05T17:49:56.234Z,101804.80
2019-01-05T17:55:20.239Z,101814.02
2019-01-05T18:00:41.704Z,101815.28
2019-01-05T18:06:15.736Z,101822.49
2019-01-05T18:11:40.934Z,101828.11
2019-01-05T18:17:03.085Z,101838.98
2019-01-05T18:22:37.463Z,101840.05
2019-01-05T18:27:57.954Z,101844.08
2019-01-05T18:33:19.855Z,101861.58
2019-01-05T18:38:34.680Z,101854.10
2019-01-05T18:44:05.117Z,101849.92
2019-01-05T18:49:25.481Z,101859.78
2019-01-05T18:54:47.367Z,101863.70
2019-01-05T19:00:17.948Z,101875.38
2019-01-05T19:05:33.036Z,101890.48
2019-01-05T19:10:58.025Z,101894.50
2019-01-05T19:16:22.721Z,101902.80
2019-01-05T19:21:42.731Z,101916.62
2019-01-05T19:26:59.563Z,101919.71
2019-01-05T19:32:27.973Z,101927.06
2019-01-05T19:37:52.741Z,101926.75
2019-01-05T19:43:16.687Z,101922.69
2019-01-05T19:48:37.616Z,101935.71
2019-01-05T19:54:02.277Z,101942.30
2019-01-05T19:59:24.821Z,101944.95
2019-01-05T20:04:45.075Z,101948.83
2019-01-05T20:10:13.415Z,101950.86
2019-01-05T20:15:50.879Z,101960.18
2019-01-05T20:21:12.513Z,101963.00
2019-01-05T20:26:29.770Z,101974.33
2019-01-05T20:31:53.088Z,101969.81
2019-01-05T20:37:19.068Z,101972.17
2019-01-05T20:42:46.868Z,101980.55
2019-01-05T20:48:05.982Z,101986.85
2019-01-05T20:53:37.044Z,101988.69
2019-01-05T20:58:57.723Z,101993.95
2019-01-05T21:04:15.900Z,101996.23
2019-01-05T21:09:36.707Z,102003.33
2019-01-05T21:14:56.855Z,102000.95
2019-01-05T21:20:30.982Z,102001.58
2019-01-05T21:25:46.649Z,102001.67
2019-01-05T21:30:59.944Z,102005.74
2019-01-05T21:36:21.507Z,101999.87
2019-01-05T21:41:40.762Z,102006.09
2019-01-05T21:47:14.859Z,102017.03
2019-01-05T21:52:37.834Z,102014.55
2019-01-05T21:58:00.755Z,102019.78
2019-01-05T22:03:21.178Z,102020.16
2019-01-05T22:08:36.431Z,102024.40
2019-01-05T22:14:01.691Z,102023.48
2019-01-05T22:19:17.431Z,102020.06
2019-01-05T22:24:38.541Z,102022.70
2019-01-05T22:30:03.192Z,102021.41
2019-01-05T22:35:20.969Z,102019.77
2019-01-05T22:40:39.851Z,102020.16
2019-01-05T22:46:00.965Z,102023.22
2019-01-05T22:51:21.325Z,102027.50
2019-01-05T22:56:46.840Z,102033.44
2019-01-05T23:02:11.757Z,102029.55
2019-01-05T23:07:34.220Z,102045.03
2019-01-05T23:12:54.970Z,102048.84
2019-01-05T23:18:16.889Z,102037.73
2019-01-05T23:23:36.905Z,102041.18
2019-01-05T23:29:10.726Z,102030.03
2019-01-05T23:34:19.979Z,102035.27
2019-01-05T23:39:59.884Z,102050.83
2019-01-05T23:45:19.437Z,102050.39
2019-01-05T23:50:37.930Z,102063.28
2019-01-05T23:56:02.381Z,102059.03
